Flight Track Log - Related Links

Times and Time Zones

All times are in EDT time to prevent confusion due to time zone crossing. See the SKW5510 flight status page for this flight to view local times or setup timezone preferences in your user account.

Time Position Orientation Groundspeed Altitude Reporting Facility
EDT Latitude Longitude Course Direction KTS MPH feet Rate Location/Type
Fri 07:03:17 PM 36.1953 -95.8633 60° Northeast 148 170 1,300  Level Kansas City Center
Fri 07:03:47 PM 36.1989 -95.8319 82° East 164 189 2,100 1,582 Climbing Kansas City Center
Fri 07:04:48 PM 36.2286 -95.7633 62° Northeast 251 289 3,700 1,500 Climbing Kansas City Center
Fri 07:05:15 PM 36.2419 -95.7344 60° Northeast 251 289 4,300 2,133 Climbing Kansas City Center
Fri 07:06:18 PM 36.2864 -95.6414 59° Northeast 304 350 6,900 2,592 Climbing Kansas City Center
Fri 07:07:00 PM 36.4594 -95.3016 64° Northeast  Level FlightAware Approximate
Fri 07:07:20 PM 36.3322 -95.5489 58° Northeast 314 361 9,700  Level Kansas City Center
Fri 07:08:00 PM 36.5188 -95.1887 60° Northeast  Level FlightAware Approximate
Fri 07:08:21 PM 36.3856 -95.4328 60° Northeast 333 383 11,600  Level Kansas City Center
Fri 07:09:21 PM 36.4342 -95.3319 59° Northeast 352 405 13,100 1,610 Climbing Kansas City Center
Fri 07:10:24 PM 36.4872 -95.2208 59° Northeast 369 425 14,900 1,645 Climbing Kansas City Center
Fri 07:11:25 PM 36.5428 -95.1000 60° Northeast 379 436 16,500 1,584 Climbing Kansas City Center
Fri 07:12:29 PM 36.6081 -94.9619 59° Northeast 398 458 18,200 1,488 Climbing Kansas City Center
Fri 07:13:30 PM 36.6653 -94.8414 59° Northeast 403 464 19,600 1,426 Climbing Kansas City Center
Fri 07:14:31 PM 36.7242 -94.7153 60° Northeast 415 478 21,100 1,258 Climbing Kansas City Center
Fri 07:15:34 PM 36.7819 -94.5894 60° Northeast 418 481 22,200 968 Climbing Kansas City Center
Fri 07:16:35 PM 36.8497 -94.4664 55° Northeast 441 507 23,100 1,041 Climbing Kansas City Center
Fri 07:17:35 PM 36.9389 -94.3664 42° Northeast 435 501 24,300 1,104 Climbing Kansas City Center
Fri 07:18:40 PM 37.0283 -94.2647 42° Northeast 435 501 25,400 1,344 Climbing Kansas City Center
Fri 07:19:40 PM 37.1367 -94.1447 41° Northeast 434 499 27,100 793 Climbing Kansas City Center
Fri 07:20:41 PM 37.2283 -94.0378 43° Northeast 435 501 27,000 -48 Descending Kansas City Center
Fri 07:21:44 PM 37.3289 -93.9328 40° Northeast 461 531 27,000  Level Kansas City Center
Fri 07:22:44 PM 37.4308 -93.8283 39° Northeast 469 540 27,000  Level Kansas City Center
Fri 07:23:46 PM 37.5256 -93.7111 44° Northeast 475 547 27,000  Level Kansas City Center
Fri 07:24:49 PM 37.6194 -93.5967 44° Northeast 470 541 27,000 48 Level Kansas City Center
Fri 07:25:50 PM 37.7136 -93.4861 43° Northeast 462 532 27,100  Climbing Kansas City Center
Fri 07:26:53 PM 37.8069 -93.3739 44° Northeast 460 529 27,000 -48 Descending Kansas City Center
Fri 07:27:55 PM 37.9031 -93.2644 42° Northeast 461 531 27,000  Level Kansas City Center
Fri 07:28:56 PM 37.9981 -93.1556 42° Northeast 459 528 27,000  Level Kansas City Center
Fri 07:29:57 PM 38.0925 -93.0431 43° Northeast 460 529 27,000  Level Kansas City Center
Fri 07:30:58 PM 38.1897 -92.9306 42° Northeast 463 533 27,000  Level Kansas City Center
Fri 07:32:01 PM 38.3033 -92.7906 44° Northeast 465 535 27,000 48 Level Kansas City Center
Fri 07:33:02 PM 38.3978 -92.6694 45° Northeast 469 540 27,100  Climbing Kansas City Center
Fri 07:34:02 PM 38.5008 -92.5567 41° Northeast 481 554 27,000 -48 Descending Kansas City Center
Fri 07:35:06 PM 38.5978 -92.4408 43° Northeast 473 544 27,000  Level Kansas City Center
Fri 07:36:07 PM 38.6939 -92.3253 43° Northeast 471 542 27,000  Level Kansas City Center
Fri 07:37:09 PM 38.7875 -92.2119 43° Northeast 464 534 27,000  Level Kansas City Center
Fri 07:38:10 PM 38.8819 -92.0975 43° Northeast 464 534 27,000  Level Kansas City Center
Fri 07:39:12 PM 38.9764 -91.9842 43° Northeast 463 533 27,000  Level Kansas City Center
Fri 07:40:12 PM 39.0694 -91.8694 44° Northeast 462 532 27,000  Level Kansas City Center
Fri 07:41:16 PM 39.1647 -91.7544 43° Northeast 464 534 27,000  Level Kansas City Center
Fri 07:42:16 PM 39.2725 -91.6236 43° Northeast 471 542 27,000  Level Kansas City Center
Fri 07:43:19 PM 39.3689 -91.5044 44° Northeast 476 548 27,000  Level Kansas City Center
Fri 07:44:20 PM 39.4653 -91.3831 44° Northeast 479 551 27,000  Level Kansas City Center
Fri 07:45:22 PM 39.5617 -91.2647 43° Northeast 478 550 27,000  Level Kansas City Center
Fri 07:46:23 PM 39.6586 -91.1431 44° Northeast 480 552 27,000  Level Kansas City Center
Fri 07:47:24 PM 39.7617 -91.0250 41° Northeast 479 551 27,000  Level Kansas City Center
Fri 07:48:25 PM 39.8633 -90.9253 37° Northeast 477 549 27,000  Level Kansas City Center
Fri 07:49:29 PM 39.9892 -90.7983 38° Northeast 476 548 27,000  Level Kansas City Center
Fri 07:50:30 PM 40.0928 -90.6919 38° Northeast 475 547 27,000  Level Kansas City Center
Fri 07:51:10 PM 40.1561 -90.6292 37° Northeast 474 545 27,000  Level Chicago Center
Fri 07:52:12 PM 40.2608 -90.5236 38° Northeast 473 544 27,000 -194 Level Chicago Center
Fri 07:53:14 PM 40.3656 -90.4167 38° Northeast 476 548 26,600 -1,113 Descending Chicago Center
Fri 07:54:16 PM 40.4856 -90.2919 38° Northeast 459 528 24,700 -1,258 Descending Chicago Center
Fri 07:55:18 PM 40.5767 -90.1994 38° Northeast 426 490 24,000 -339 Descending Chicago Center
Fri 07:56:20 PM 40.6650 -90.1081 38° Northeast 407 468 24,000  Level Chicago Center
Fri 07:57:22 PM 40.7556 -90.0144 38° Northeast 414 476 24,000  Level Chicago Center
Fri 07:58:24 PM 40.8472 -89.9203 38° Northeast 419 482 24,000  Level Chicago Center
Fri 07:59:26 PM 40.9558 -89.8047 39° Northeast 419 482 24,000 -48 Level Chicago Center
Fri 08:00:29 PM 41.0375 -89.7186 38° Northeast 415 478 23,900 -96 Descending Chicago Center
Fri 08:01:31 PM 41.1136 -89.5964 50° Northeast 428 493 23,800 -1,306 Descending Chicago Center
Fri 08:02:33 PM 41.1872 -89.4314 59° Northeast 431 496 21,200 -2,177 Descending Chicago Center
Fri 08:03:35 PM 41.2472 -89.3008 59° Northeast 417 480 19,300 -1,790 Descending Chicago Center
Fri 08:04:37 PM 41.3081 -89.1672 59° Northeast 403 464 17,500 -1,824 Descending Chicago Center
Fri 08:05:40 PM 41.3628 -89.0456 59° Northeast 388 447 15,500 -1,776 Descending Chicago Center
Fri 08:06:42 PM 41.4161 -88.9272 59° Northeast 378 435 13,800 -1,548 Descending Chicago Center
Fri 08:07:44 PM 41.4672 -88.8122 59° Northeast 368 423 12,300 -1,355 Descending Chicago Center
Fri 08:08:46 PM 41.5169 -88.7006 59° Northeast 354 407 11,000 -629 Descending Chicago Center
Fri 08:09:48 PM 41.5678 -88.5667 63° Northeast 338 389 11,000 -339 Level Chicago Center
Fri 08:10:50 PM 41.6128 -88.4628 60° Northeast 326 375 10,300 -484 Descending Chicago Center
Fri 08:11:52 PM 41.6700 -88.3625 53° Northeast 336 387 10,000 -242 Descending Chicago Center
Fri 08:12:54 PM 41.7261 -88.2642 53° Northeast 333 383 9,800 -726 Descending Chicago Center
Fri 08:13:56 PM 41.7800 -88.1758 51° Northeast 310 357 8,500 -1,210 Descending Chicago Center
Fri 08:14:58 PM 41.8319 -88.0864 52° Northeast 304 350 7,300 -726 Descending Chicago Center
Fri 08:16:00 PM 41.9114 -88.0783 North 298 343 7,000 -202 Descending Chicago Center
Fri 08:16:27 PM 41.9667 -88.0833 356° North 302 348 7,000 -1,724 Level Chicago TRACON
Fri 08:17:27 PM 42.0333 -88.1333 331° Northwest 279 321 4,500 -2,182 Descending Chicago TRACON
Fri 08:18:28 PM 42.0833 -88.0667 45° Northeast 275 316 2,600 -1,041 Descending Chicago TRACON
Fri 08:19:28 PM 42.0500 -88.0000 124° Southeast 198 228 2,400 -200 Descending Chicago TRACON

Login

Don't have an account? Register now (free) for customized features, flight alerts, and more!